Time;durP1;ratioP1;P1;durP2;ratioP2;P2;SDS_P1;SDS_P2;PMS_P1;PMS_P2;Temp;Humidity;BMP_temperature;BMP_pressure;BME280_temperature;BME280_humidity;BME280_pressure;Samples;Min_cycle;Max_cycle;Signal;HPM_P1;HPM_P2
2023/08/03 00:00:34;;;;;;;1.40;0.90;;;;;;;18.66;100.00;97689.09;4484709;31;20092;-69
2023/08/03 00:03:02;;;;;;;1.55;0.95;;;;;;;18.75;100.00;97684.34;4483361;32;20492;-69
2023/08/03 00:05:30;;;;;;;1.60;0.93;;;;;;;18.70;100.00;97686.81;4483674;31;20504;-69
2023/08/03 00:07:58;;;;;;;1.73;1.10;;;;;;;18.76;100.00;97678.03;4484640;32;20148;-69
2023/08/03 00:10:26;;;;;;;2.83;1.08;;;;;;;18.82;100.00;97674.50;4484473;31;20100;-69
2023/08/03 00:12:54;;;;;;;1.90;1.35;;;;;;;18.75;100.00;97682.50;4484669;31;20119;-69
2023/08/03 00:15:21;;;;;;;2.50;1.25;;;;;;;18.74;100.00;97678.25;4484458;31;20100;-69
2023/08/03 00:17:49;;;;;;;2.28;1.25;;;;;;;18.62;100.00;97677.28;4484732;31;20553;-69
2023/08/03 00:20:18;;;;;;;3.78;1.10;;;;;;;18.56;100.00;97678.97;4484351;32;20111;-69
2023/08/03 00:22:46;;;;;;;1.77;1.08;;;;;;;18.55;100.00;97682.66;4484468;31;20126;-69
2023/08/03 00:25:14;;;;;;;3.05;1.00;;;;;;;18.52;100.00;97683.09;4484440;32;20394;-69
2023/08/03 00:27:42;;;;;;;1.55;1.20;;;;;;;18.52;100.00;97683.09;4484302;32;20085;-69
2023/08/03 00:30:10;;;;;;;3.58;1.50;;;;;;;18.50;100.00;97690.47;4484315;32;20117;-69
2023/08/03 00:32:38;;;;;;;3.70;1.35;;;;;;;18.50;100.00;97689.63;4484403;31;20131;-69
2023/08/03 00:35:06;;;;;;;2.25;1.33;;;;;;;18.50;100.00;97687.81;4484115;32;20104;-70
2023/08/03 00:37:34;;;;;;;4.03;1.48;;;;;;;18.49;100.00;97688.81;4484168;31;20118;-69
2023/08/03 00:40:01;;;;;;;3.92;1.52;;;;;;;18.49;100.00;97683.50;4484250;32;20112;-69
2023/08/03 00:42:29;;;;;;;2.47;1.55;;;;;;;18.68;100.00;97684.37;4484085;32;20142;-69
2023/08/03 00:44:56;;;;;;;3.45;1.60;;;;;;;18.77;100.00;97685.75;4483237;32;20169;-69
2023/08/03 00:47:24;;;;;;;3.50;1.60;;;;;;;18.83;100.00;97683.25;4484368;31;20092;-69
2023/08/03 00:49:52;;;;;;;3.47;1.83;;;;;;;18.88;100.00;97683.44;4484056;31;20105;-69
2023/08/03 00:52:20;;;;;;;4.30;1.83;;;;;;;18.97;100.00;97671.53;4483773;32;20164;-69
2023/08/03 00:54:48;;;;;;;4.78;1.90;;;;;;;18.93;100.00;97681.75;4484064;31;20144;-69
2023/08/03 00:57:18;;;;;;;5.62;2.10;;;;;;;18.68;100.00;97691.53;4483863;32;20481;-69
2023/08/03 00:59:48;;;;;;;3.70;2.30;;;;;;;18.52;100.00;97698.19;4484009;32;20114;-69
2023/08/03 01:02:16;;;;;;;6.55;2.30;;;;;;;18.47;100.00;97685.59;4483870;32;20119;-69
2023/08/03 01:04:45;;;;;;;2.78;1.90;;;;;;;18.58;100.00;97690.19;4482615;32;20120;-69
2023/08/03 01:07:13;;;;;;;4.75;2.00;;;;;;;18.53;100.00;97694.50;4483833;32;20092;-69
2023/08/03 01:09:41;;;;;;;3.00;1.60;;;;;;;18.60;100.00;97692.63;4483812;32;20130;-69
2023/08/03 01:12:08;;;;;;;4.53;2.10;;;;;;;18.71;100.00;97683.16;4483727;32;20088;-69
2023/08/03 01:14:36;;;;;;;2.83;2.00;;;;;;;18.89;100.00;97679.75;4483608;31;20505;-69
2023/08/03 01:17:04;;;;;;;4.12;2.33;;;;;;;18.87;100.00;97682.63;4484674;32;20115;-69
2023/08/03 01:19:32;;;;;;;3.05;2.03;;;;;;;18.91;100.00;97677.69;4486078;31;20088;-69
2023/08/03 01:22:00;;;;;;;4.50;1.95;;;;;;;18.97;100.00;97679.50;4486034;31;20100;-69
2023/08/03 01:24:30;;;;;;;3.40;2.30;;;;;;;19.02;100.00;97673.53;4484842;32;20096;-69
2023/08/03 01:26:59;;;;;;;3.85;2.30;;;;;;;19.10;100.00;97674.06;4486019;31;20080;-69
2023/08/03 01:29:27;;;;;;;3.25;2.05;;;;;;;19.09;100.00;97676.94;4485906;31;20442;-69
2023/08/03 01:31:56;;;;;;;2.67;2.00;;;;;;;18.95;100.00;97668.28;4485861;31;20084;-69
2023/08/03 01:34:24;;;;;;;3.80;2.00;;;;;;;19.01;100.00;97670.06;4484879;32;20126;-69
2023/08/03 01:36:54;;;;;;;3.50;2.25;;;;;;;19.00;100.00;97667.63;4485841;31;20122;-69
2023/08/03 01:39:24;;;;;;;3.85;2.28;;;;;;;18.87;100.00;97674.69;4485911;31;20201;-69
2023/08/03 01:41:52;;;;;;;3.03;2.03;;;;;;;18.77;100.00;97669.00;4485781;31;20100;-69
2023/08/03 01:44:23;;;;;;;3.65;2.05;;;;;;;18.72;100.00;97669.66;4485905;31;20109;-69
2023/08/03 01:46:53;;;;;;;3.05;2.10;;;;;;;18.73;100.00;97660.69;4484686;32;20115;-69
2023/08/03 01:49:22;;;;;;;4.03;2.20;;;;;;;18.76;100.00;97659.44;4485599;31;20104;-69
2023/08/03 01:51:50;;;;;;;4.57;1.90;;;;;;;18.74;100.00;97659.66;4485691;31;20088;-69
2023/08/03 01:54:18;;;;;;;7.12;2.50;;;;;;;18.76;100.00;97648.84;4485802;31;20093;-69
2023/08/03 01:56:46;;;;;;;7.10;2.30;;;;;;;18.65;100.00;97644.22;4485724;32;20092;-69
2023/08/03 01:59:14;;;;;;;2.80;2.30;;;;;;;18.61;100.00;97644.66;4485637;32;20204;-69
2023/08/03 02:01:42;;;;;;;4.12;2.08;;;;;;;18.65;100.00;97636.25;4485663;31;20509;-69
2023/08/03 02:04:11;;;;;;;5.10;2.65;;;;;;;18.64;100.00;97643.41;4485570;32;20101;-69
2023/08/03 02:06:39;;;;;;;4.87;2.70;;;;;;;18.59;100.00;97640.59;4485517;31;20123;-69
2023/08/03 02:09:07;;;;;;;7.25;2.67;;;;;;;18.59;100.00;97661.81;4485671;31;20422;-69
2023/08/03 02:11:36;;;;;;;3.55;2.25;;;;;;;18.42;100.00;97650.91;4485588;32;20458;-69
2023/08/03 02:14:03;;;;;;;5.32;2.92;;;;;;;18.40;100.00;97651.13;4485634;31;20100;-69
2023/08/03 02:16:32;;;;;;;6.32;2.83;;;;;;;18.32;100.00;97655.88;4485559;32;20100;-69
2023/08/03 02:19:00;;;;;;;4.82;2.62;;;;;;;18.30;100.00;97647.34;4485474;31;20135;-69
2023/08/03 02:21:29;;;;;;;5.05;2.80;;;;;;;18.27;100.00;97660.00;4485518;32;20478;-69
2023/08/03 02:23:57;;;;;;;7.12;2.95;;;;;;;18.23;100.00;97658.81;4485345;32;20134;-69
2023/08/03 02:26:25;;;;;;;7.72;3.10;;;;;;;18.12;100.00;97659.47;4485420;31;20092;-69
2023/08/03 02:28:54;;;;;;;4.10;2.55;;;;;;;18.11;100.00;97659.69;4484785;31;20485;-69
2023/08/03 02:31:22;;;;;;;7.40;2.67;;;;;;;18.24;100.00;97664.91;4485342;31;20842;-69
2023/08/03 02:33:50;;;;;;;5.60;2.97;;;;;;;18.25;100.00;97667.34;4485607;32;20131;-69
2023/08/03 02:36:19;;;;;;;4.07;2.50;;;;;;;18.18;100.00;97665.75;4485742;32;20093;-69
2023/08/03 02:38:48;;;;;;;5.20;2.58;;;;;;;18.16;100.00;97673.94;4485188;32;20179;-69
2023/08/03 02:41:16;;;;;;;5.78;3.20;;;;;;;18.14;100.00;97676.00;4485755;32;20161;-69
2023/08/03 02:43:44;;;;;;;6.12;2.80;;;;;;;18.19;100.00;97670.03;4485492;32;20148;-69
2023/08/03 02:46:13;;;;;;;5.53;2.62;;;;;;;18.14;100.00;97673.34;4485604;32;20127;-69
2023/08/03 02:48:41;;;;;;;5.82;2.60;;;;;;;18.14;100.00;97669.84;4485441;32;20115;-69
2023/08/03 02:51:09;;;;;;;3.42;2.50;;;;;;;18.11;100.00;97673.75;4485547;32;20175;-69
2023/08/03 02:53:38;;;;;;;4.05;2.37;;;;;;;18.07;100.00;97680.50;4485416;32;20569;-69
2023/08/03 02:56:06;;;;;;;5.35;2.53;;;;;;;18.03;100.00;97669.53;4485403;32;20572;-69
2023/08/03 02:58:34;;;;;;;5.70;2.97;;;;;;;17.90;100.00;97669.59;4485376;32;20127;-69
2023/08/03 03:01:04;;;;;;;3.65;2.50;;;;;;;17.78;100.00;97665.94;4485804;32;20588;-69
2023/08/03 03:03:33;;;;;;;3.80;2.72;;;;;;;17.80;100.00;97670.00;4485160;32;20139;-69
2023/08/03 03:06:01;;;;;;;4.60;2.75;;;;;;;17.84;100.00;97671.22;4485266;32;20092;-69
2023/08/03 03:08:31;;;;;;;4.45;2.45;;;;;;;17.85;100.00;97672.00;4485380;32;20096;-69
2023/08/03 03:10:59;;;;;;;4.00;2.95;;;;;;;17.84;100.00;97671.22;4485534;31;20092;-69
2023/08/03 03:13:27;;;;;;;3.75;2.78;;;;;;;17.89;100.00;97667.94;4485188;32;20093;-69
2023/08/03 03:15:55;;;;;;;4.28;2.85;;;;;;;17.82;100.00;97673.28;4485103;31;20104;-69
2023/08/03 03:18:23;;;;;;;3.15;2.65;;;;;;;17.81;100.00;97676.13;4485433;31;20123;-69
2023/08/03 03:20:51;;;;;;;5.40;3.00;;;;;;;17.79;100.00;97676.34;4485279;31;20100;-69
2023/08/03 03:23:18;;;;;;;4.30;2.67;;;;;;;17.86;100.00;97682.41;4484969;32;20096;-69
2023/08/03 03:25:46;;;;;;;4.87;2.83;;;;;;;17.84;100.00;97687.09;4485489;31;20097;-69
2023/08/03 03:28:14;;;;;;;5.12;2.60;;;;;;;17.86;100.00;97686.91;4484787;31;20111;-69
2023/08/03 03:30:42;;;;;;;3.90;2.87;;;;;;;17.77;100.00;97691.63;4485361;32;20111;-69
2023/08/03 03:33:11;;;;;;;2.75;2.47;;;;;;;17.74;100.00;97694.69;4484870;32;20084;-69
2023/08/03 03:35:39;;;;;;;6.40;2.85;;;;;;;17.86;100.00;97685.03;4485280;32;20122;-69
2023/08/03 03:38:07;;;;;;;5.62;3.10;;;;;;;17.81;100.00;97684.06;4485249;32;20415;-69
2023/08/03 03:40:35;;;;;;;3.80;2.75;;;;;;;17.89;100.00;97684.66;4483645;32;20122;-69
2023/08/03 03:43:03;;;;;;;6.18;2.97;;;;;;;17.87;100.00;97688.53;4485011;32;20101;-69
2023/08/03 03:45:30;;;;;;;5.05;3.08;;;;;;;17.89;100.00;97687.31;4484956;31;20092;-69
2023/08/03 03:47:59;;;;;;;5.75;3.00;;;;;;;17.99;100.00;97692.16;4485173;32;20092;-69
2023/08/03 03:50:29;;;;;;;8.60;3.62;;;;;;;18.07;100.00;97693.75;4485149;31;20469;-69
2023/08/03 03:52:58;;;;;;;5.45;3.40;;;;;;;18.08;100.00;97698.84;4484763;32;20092;-69
2023/08/03 03:55:29;;;;;;;5.75;3.08;;;;;;;18.14;100.00;97691.06;4484872;31;20097;-69
2023/08/03 03:57:58;;;;;;;4.95;3.10;;;;;;;18.16;100.00;97689.84;4484495;32;20096;-69
2023/08/03 04:00:26;;;;;;;4.95;3.12;;;;;;;18.19;100.00;97691.25;4484970;31;20391;-69
2023/08/03 04:02:54;;;;;;;5.65;3.42;;;;;;;18.10;100.00;97677.44;4485038;32;20126;-69
2023/08/03 04:05:22;;;;;;;7.10;3.78;;;;;;;18.11;100.00;97686.19;4484878;32;20092;-69
2023/08/03 04:07:49;;;;;;;4.87;3.40;;;;;;;18.16;100.00;97678.44;4484829;32;20450;-69
2023/08/03 04:10:16;;;;;;;7.43;3.30;;;;;;;18.25;100.00;97685.91;4484527;31;20540;-69
2023/08/03 04:12:44;;;;;;;6.68;3.62;;;;;;;18.23;100.00;97690.63;4484706;32;20111;-69
2023/08/03 04:15:12;;;;;;;13.07;3.53;;;;;;;18.26;100.00;97678.78;4484653;32;20091;-69
2023/08/03 04:17:41;;;;;;;5.00;3.47;;;;;;;18.37;100.00;97687.88;4484564;32;20466;-69
2023/08/03 04:20:10;;;;;;;5.82;3.62;;;;;;;18.50;100.00;97684.31;4484748;31;20153;-69
2023/08/03 04:22:37;;;;;;;6.87;3.80;;;;;;;18.62;100.00;97678.13;4484576;31;20160;-69
2023/08/03 04:25:06;;;;;;;8.70;3.40;;;;;;;18.70;100.00;97662.94;4484865;31;20097;-69
2023/08/03 04:27:33;;;;;;;6.25;3.72;;;;;;;18.87;100.00;97679.19;4484721;31;20176;-69
2023/08/03 04:30:01;;;;;;;4.78;3.42;;;;;;;19.01;100.00;97677.22;4484642;31;20160;-69
2023/08/03 04:32:31;;;;;;;6.37;3.85;;;;;;;19.11;100.00;97680.19;4484854;31;20089;-69
2023/08/03 04:34:59;;;;;;;7.30;3.35;;;;;;;19.24;100.00;97685.38;4483971;32;20123;-69
2023/08/03 04:37:28;;;;;;;6.72;4.00;;;;;;;19.35;100.00;97678.53;4483919;31;20225;-69
2023/08/03 04:39:55;;;;;;;7.30;3.85;;;;;;;19.37;100.00;97678.31;4482152;31;20586;-69
2023/08/03 04:42:23;;;;;;;6.75;3.65;;;;;;;19.48;100.00;97677.56;4483132;32;20153;-69
2023/08/03 04:44:50;;;;;;;10.25;3.83;;;;;;;19.45;100.00;97670.84;4484196;31;20111;-69
2023/08/03 04:47:18;;;;;;;5.55;3.70;;;;;;;19.43;100.00;97677.41;4484075;32;20767;-69
2023/08/03 04:49:46;;;;;;;7.25;3.42;;;;;;;19.59;100.00;97674.19;4483522;32;20131;-69
2023/08/03 04:52:14;;;;;;;6.07;3.35;;;;;;;19.74;100.00;97684.41;4485015;31;20478;-69
2023/08/03 04:54:41;;;;;;;5.35;3.33;;;;;;;19.92;100.00;97680.12;4484186;31;20119;-69
2023/08/03 04:57:10;;;;;;;4.82;3.53;;;;;;;19.92;100.00;97685.47;4484567;32;20088;-69
2023/08/03 04:59:37;;;;;;;7.03;3.53;;;;;;;19.96;100.00;97683.97;4484538;32;20613;-69
2023/08/03 05:02:05;;;;;;;4.97;3.33;;;;;;;20.05;100.00;97684.50;4486164;32;20096;-69
2023/08/03 05:04:33;;;;;;;7.72;3.35;;;;;;;20.19;100.00;97677.94;4485074;32;20854;-69
2023/08/03 05:07:01;;;;;;;7.05;3.37;;;;;;;20.34;100.00;97694.28;4485325;32;20088;-69
2023/08/03 05:09:29;;;;;;;4.80;3.30;;;;;;;20.39;100.00;97673.16;4484600;31;20127;-69
2023/08/03 05:11:57;;;;;;;6.30;3.12;;;;;;;20.59;100.00;97690.66;4484424;31;20109;-69
2023/08/03 05:14:24;;;;;;;9.43;3.42;;;;;;;20.83;100.00;97690.72;4484313;32;20230;-69
2023/08/03 05:16:53;;;;;;;7.00;3.55;;;;;;;21.00;100.00;97697.00;4485350;32;20502;-69
2023/08/03 05:19:20;;;;;;;3.92;2.95;;;;;;;21.21;100.00;97682.28;4485864;31;20853;-69
2023/08/03 05:21:47;;;;;;;5.97;3.03;;;;;;;21.32;100.00;97696.66;4486050;31;20092;-69
2023/08/03 05:24:14;;;;;;;5.43;3.30;;;;;;;21.49;100.00;97687.94;4485878;32;20153;-69
2023/08/03 05:26:42;;;;;;;7.40;3.20;;;;;;;21.50;100.00;97690.41;4484457;32;20118;-69
2023/08/03 05:29:09;;;;;;;4.10;2.60;;;;;;;21.66;100.00;97696.84;4484881;31;20096;-70
2023/08/03 05:31:37;;;;;;;5.93;2.97;;;;;;;21.94;100.00;97695.28;4485738;31;20115;-70
2023/08/03 05:34:04;;;;;;;3.85;2.53;;;;;;;21.93;100.00;97707.78;4485533;32;20096;-70
2023/08/03 05:36:33;;;;;;;5.97;3.12;;;;;;;22.10;100.00;97705.16;4483292;32;20126;-70
2023/08/03 05:39:00;;;;;;;8.38;3.12;;;;;;;22.28;100.00;97711.38;4485690;32;20782;-70
2023/08/03 05:41:28;;;;;;;5.18;3.08;;;;;;;22.26;100.00;97700.16;4485684;32;20119;-70
2023/08/03 05:43:55;;;;;;;5.32;3.10;;;;;;;22.33;100.00;97701.66;4484152;31;20096;-70
2023/08/03 05:46:30;;;;;;;4.12;2.70;;;;;;;22.42;100.00;97709.25;4484315;31;20097;-70
2023/08/03 05:48:58;;;;;;;6.85;3.47;;;;;;;22.41;100.00;97718.31;4485439;31;20096;-70
2023/08/03 05:51:27;;;;;;;7.75;3.00;;;;;;;22.38;100.00;97713.44;4485646;32;20123;-70
2023/08/03 05:53:56;;;;;;;6.07;2.90;;;;;;;22.48;100.00;97711.78;4485844;31;20453;-70
2023/08/03 05:56:24;;;;;;;4.60;2.70;;;;;;;22.68;100.00;97715.84;4485636;31;20100;-70
2023/08/03 05:58:55;;;;;;;4.55;2.70;;;;;;;22.82;100.00;97711.81;4485728;31;20101;-70
2023/08/03 06:01:23;;;;;;;5.50;2.87;;;;;;;22.90;100.00;97709.78;4485632;31;20145;-70
2023/08/03 06:03:53;;;;;;;4.37;2.85;;;;;;;23.01;100.00;97719.56;4485142;31;20088;-69
2023/08/03 06:06:21;;;;;;;4.12;2.85;;;;;;;23.02;100.00;97721.19;4485553;31;20093;-70
2023/08/03 06:08:51;;;;;;;4.43;2.75;;;;;;;22.96;100.00;97719.50;4486027;31;20100;-69
2023/08/03 06:11:20;;;;;;;3.90;2.85;;;;;;;23.14;100.00;97727.28;4485715;31;20084;-70
2023/08/03 06:13:54;;;;;;;3.90;2.65;;;;;;;23.28;100.00;97718.94;4485525;31;20091;-70
2023/08/03 06:16:24;;;;;;;6.32;2.90;;;;;;;23.39;100.00;97726.03;4485749;31;20088;-69
2023/08/03 06:18:53;;;;;;;4.45;2.85;;;;;;;23.47;100.00;97728.28;4485594;31;20089;-70
2023/08/03 06:21:26;;;;;;;4.20;2.92;;;;;;;23.52;100.00;97732.91;4485666;31;20430;-69
2023/08/03 06:23:56;;;;;;;4.95;2.50;;;;;;;23.55;100.00;97730.53;4485737;31;20660;-69
2023/08/03 06:26:24;;;;;;;3.67;2.60;;;;;;;23.63;100.00;97729.28;4485570;31;20080;-69
2023/08/03 06:28:54;;;;;;;9.00;2.95;;;;;;;23.69;100.00;97738.19;4485646;31;20433;-70
2023/08/03 06:31:40;;;;;;;3.22;2.33;;;;;;;23.66;100.00;97736.81;4485527;31;20114;-69
2023/08/03 06:34:13;;;;;;;7.78;3.37;;;;;;;23.80;100.00;97737.28;4484417;32;20119;-69
2023/08/03 06:36:42;;;;;;;4.75;2.92;;;;;;;24.14;100.00;97741.72;4485544;31;20099;-70
2023/08/03 06:39:10;;;;;;;7.75;3.00;;;;;;;24.53;100.00;97750.44;4485545;31;20111;-69
2023/08/03 06:41:37;;;;;;;5.65;2.90;;;;;;;24.52;100.00;97743.44;4485200;31;20426;-69
2023/08/03 06:44:04;;;;;;;5.53;3.45;;;;;;;24.44;100.00;97743.91;4485628;31;20096;-69
2023/08/03 06:46:32;;;;;;;5.55;2.97;;;;;;;24.44;100.00;97744.72;4485255;31;20108;-69
2023/08/03 06:49:00;;;;;;;10.15;3.20;;;;;;;24.33;100.00;97751.03;4485348;32;20579;-69
2023/08/03 06:51:27;;;;;;;3.80;2.80;;;;;;;23.97;100.00;97753.31;4485088;31;20123;-69
2023/08/03 06:53:54;;;;;;;3.25;2.70;;;;;;;23.91;100.00;97754.31;4485486;32;20142;-69
2023/08/03 06:56:22;;;;;;;5.57;2.87;;;;;;;23.77;100.00;97753.00;4484037;32;20442;-69
2023/08/03 06:58:49;;;;;;;3.90;3.20;;;;;;;23.80;100.00;97763.22;4485488;32;20100;-69
2023/08/03 07:01:17;;;;;;;7.85;3.03;;;;;;;23.51;100.00;97772.19;4485540;32;20135;-69
2023/08/03 07:03:44;;;;;;;6.55;3.30;;;;;;;23.16;100.00;97773.25;4483895;32;20704;-69
2023/08/03 07:06:14;;;;;;;4.85;3.03;;;;;;;23.12;100.00;97774.81;4485308;31;20097;-69
2023/08/03 07:08:50;;;;;;;4.82;2.90;;;;;;;23.16;100.00;97781.28;4485318;32;20088;-69
2023/08/03 07:11:17;;;;;;;5.25;3.30;;;;;;;22.96;100.00;97775.59;4485243;32;20505;-69
2023/08/03 07:13:45;;;;;;;4.53;3.50;;;;;;;22.85;100.00;97767.41;4485328;32;20477;-69
2023/08/03 07:16:13;;;;;;;4.55;3.30;;;;;;;22.73;100.00;97781.88;4485142;31;20092;-69
2023/08/03 07:18:41;;;;;;;6.07;3.70;;;;;;;22.71;100.00;97786.62;4485035;32;20131;-69
2023/08/03 07:21:13;;;;;;;7.57;4.00;;;;;;;22.48;100.00;97791.84;4485337;32;20126;-69
2023/08/03 07:23:43;;;;;;;4.90;3.50;;;;;;;22.41;100.00;97793.84;4485045;32;20555;-69
2023/08/03 07:26:16;;;;;;;6.25;3.62;;;;;;;22.35;100.00;97800.13;4485270;32;20122;-69
2023/08/03 07:28:49;;;;;;;5.03;3.35;;;;;;;22.25;100.00;97787.34;4485064;31;20088;-69
2023/08/03 07:31:18;;;;;;;4.50;3.35;;;;;;;22.26;100.00;97790.84;4485132;32;20092;-69
2023/08/03 07:33:46;;;;;;;3.42;2.72;;;;;;;22.50;100.00;97788.94;4485046;32;20096;-69
2023/08/03 07:36:17;;;;;;;6.90;3.55;;;;;;;22.63;100.00;97795.84;4485144;32;20092;-69
2023/08/03 07:38:45;;;;;;;4.18;3.10;;;;;;;22.55;100.00;97802.38;4485032;31;20145;-69
2023/08/03 07:41:13;;;;;;;4.03;3.62;;;;;;;22.52;100.00;97813.53;4485119;31;20164;-69
2023/08/03 07:43:41;;;;;;;6.50;3.47;;;;;;;22.21;100.00;97820.09;4484944;31;20097;-69
2023/08/03 07:46:10;;;;;;;4.30;3.50;;;;;;;22.18;100.00;97821.37;4485155;32;20122;-69
2023/08/03 07:48:38;;;;;;;5.18;3.40;;;;;;;22.43;100.00;97818.44;4484691;31;20146;-69
2023/08/03 07:51:16;;;;;;;4.03;2.95;;;;;;;22.70;100.00;97817.88;4485008;32;20443;-69
2023/08/03 07:53:47;;;;;;;5.80;3.35;;;;;;;23.09;100.00;97818.06;4484811;31;20466;-69
2023/08/03 07:56:21;;;;;;;4.00;3.60;;;;;;;23.27;100.00;97819.69;4485045;31;20480;-69
2023/08/03 07:58:49;;;;;;;4.37;3.15;;;;;;;23.76;100.00;97819.06;4484605;32;20130;-69
2023/08/03 08:01:19;;;;;;;5.72;3.58;;;;;;;23.59;100.00;97832.47;4484901;31;20092;-69
2023/08/03 08:03:47;;;;;;;5.85;3.87;;;;;;;23.79;100.00;97826.59;4484671;31;20152;-69
2023/08/03 08:06:16;;;;;;;8.30;4.25;;;;;;;24.14;100.00;97822.81;4484804;31;20622;-69
2023/08/03 08:08:45;;;;;;;6.62;3.58;;;;;;;23.76;100.00;97843.13;4484583;31;20101;-69
2023/08/03 08:11:15;;;;;;;5.28;3.87;;;;;;;23.76;100.00;97843.13;4484935;31;20151;-69
2023/08/03 08:13:44;;;;;;;5.18;3.85;;;;;;;23.79;100.00;97842.66;4484649;31;20466;-69
2023/08/03 08:16:14;;;;;;;4.60;3.78;;;;;;;23.41;100.00;97846.06;4484542;31;20115;-69
2023/08/03 08:18:43;;;;;;;7.57;4.00;;;;;;;23.12;100.00;97848.78;4484789;31;20120;-69
2023/08/03 08:21:12;;;;;;;5.80;3.62;;;;;;;22.98;100.00;97850.94;4484478;31;20088;-69
2023/08/03 08:23:40;;;;;;;6.43;3.92;;;;;;;23.16;100.00;97855.28;4484588;31;20080;-69
2023/08/03 08:26:12;;;;;;;7.85;4.10;;;;;;;23.44;100.00;97857.09;4484741;31;20145;-69
2023/08/03 08:28:42;;;;;;;9.05;4.37;;;;;;;23.37;100.00;97867.94;4486294;31;20083;-69
2023/08/03 08:31:28;;;;;;;7.62;3.90;;;;;;;23.48;100.00;97857.41;4486400;31;20498;-69
2023/08/03 08:34:15;;;;;;;7.93;4.22;;;;;;;23.70;100.00;97863.62;4486353;32;20133;-69
2023/08/03 08:36:43;;;;;;;5.40;4.10;;;;;;;23.98;100.00;97861.13;4486583;32;20185;-69
2023/08/03 08:39:12;;;;;;;5.18;4.10;;;;;;;24.04;100.00;97870.81;4486227;32;20089;-69
2023/08/03 08:41:41;;;;;;;6.85;3.95;;;;;;;23.97;100.00;97870.19;4486297;32;20092;-69
2023/08/03 08:44:14;;;;;;;4.45;3.90;;;;;;;23.95;100.00;97874.97;4484415;31;20153;-71
2023/08/03 08:46:43;;;;;;;4.93;4.10;;;;;;;24.17;100.00;97867.00;4483626;32;20084;-70
2023/08/03 08:49:13;;;;;;;9.02;4.32;;;;;;;24.16;100.00;97879.56;4483257;31;20156;-70
2023/08/03 08:51:45;;;;;;;8.30;4.10;;;;;;;24.04;100.00;97892.22;4483901;31;20104;-70
2023/08/03 08:54:17;;;;;;;9.57;4.20;;;;;;;24.40;100.00;97884.69;4483961;32;20469;-70
2023/08/03 08:56:52;;;;;;;7.00;4.45;;;;;;;24.35;100.00;97895.34;4484919;31;20441;-70
2023/08/03 08:59:26;;;;;;;8.30;4.33;;;;;;;24.74;100.00;97890.75;4484171;31;20088;-70
2023/08/03 09:01:56;;;;;;;7.85;4.80;;;;;;;25.22;100.00;97890.94;4484308;31;20217;-70
2023/08/03 09:04:32;;;;;;;8.75;4.32;;;;;;;24.85;100.00;97882.84;4484340;31;20806;-70
2023/08/03 09:07:02;;;;;;;7.90;3.95;;;;;;;25.06;100.00;97887.34;4484238;31;20201;-70
2023/08/03 09:09:33;;;;;;;6.05;3.85;;;;;;;25.18;100.00;97883.69;4484007;31;20091;-70
2023/08/03 09:12:01;;;;;;;8.18;3.90;;;;;;;25.33;100.00;97881.97;4484736;32;20092;-70
2023/08/03 09:14:30;;;;;;;6.78;4.05;;;;;;;25.53;100.00;97880.53;4476916;31;20175;-70
2023/08/03 09:17:18;;;;;;;8.13;4.00;;;;;;;25.71;100.00;97879.34;4468406;32;20461;-70
2023/08/03 09:19:46;;;;;;;8.15;4.00;;;;;;;25.72;98.54;97877.44;4468526;32;20092;-70
2023/08/03 09:22:21;;;;;;;6.57;3.90;;;;;;;25.62;99.61;97878.19;4469006;32;20089;-70
2023/08/03 09:25:05;;;;;;;6.25;3.75;;;;;;;25.63;99.11;97879.78;4468864;32;20427;-70
2023/08/03 09:27:36;;;;;;;6.05;3.55;;;;;;;25.71;98.52;97878.50;4468761;32;20122;-70
2023/08/03 09:30:25;;;;;;;5.50;3.80;;;;;;;25.65;98.68;97891.88;4451829;32;20410;-70
2023/08/03 09:33:13;;;;;;;6.85;3.92;;;;;;;25.56;97.08;97895.31;4452255;32;20709;-70
2023/08/03 09:36:04;;;;;;;8.15;3.75;;;;;;;25.40;96.02;97897.84;4452120;32;20181;-70
2023/08/03 09:38:31;;;;;;;6.82;4.10;;;;;;;25.61;96.16;97904.19;4451070;32;20569;-70
2023/08/03 09:41:00;;;;;;;5.78;4.15;;;;;;;25.80;96.06;97907.28;4452037;32;20113;-70
2023/08/03 09:43:28;;;;;;;4.10;3.33;;;;;;;26.00;97.14;97916.59;4439367;32;20299;-70
2023/08/03 09:46:01;;;;;;;5.03;3.60;;;;;;;26.02;93.44;97915.25;4452102;32;20092;-70
2023/08/03 09:48:28;;;;;;;3.83;3.28;;;;;;;26.12;89.73;97913.72;4460284;32;20096;-70
2023/08/03 09:50:58;;;;;;;5.55;3.35;;;;;;;26.34;89.50;97903.63;4469980;32;20356;-70
2023/08/03 09:53:36;;;;;;;6.87;3.60;;;;;;;26.51;88.38;97900.75;4454592;32;20080;-70
2023/08/03 09:56:06;;;;;;;7.00;3.97;;;;;;;26.46;89.91;97914.13;4454447;32;20382;-70
2023/08/03 09:58:43;;;;;;;9.45;3.78;;;;;;;26.07;91.21;97927.09;4454489;32;20121;-70
2023/08/03 10:01:12;;;;;;;3.83;2.92;;;;;;;26.49;90.70;97928.94;4454224;32;20489;-70
2023/08/03 10:03:44;;;;;;;4.40;3.25;;;;;;;26.96;83.50;97933.44;4440709;32;20101;-70
2023/08/03 10:06:17;;;;;;;5.50;3.12;;;;;;;27.33;81.98;97943.25;4440493;32;20086;-70
2023/08/03 10:08:56;;;;;;;4.70;2.70;;;;;;;27.49;81.58;97932.50;4454497;32;20211;-70
2023/08/03 10:11:29;;;;;;;4.07;2.53;;;;;;;27.62;74.90;97935.44;4454361;32;20093;-70
2023/08/03 10:14:03;;;;;;;4.22;3.00;;;;;;;27.66;74.03;97934.91;4446818;32;20154;-71
2023/08/03 10:16:32;;;;;;;5.47;2.97;;;;;;;28.07;74.55;97926.81;4485529;32;20185;-70
2023/08/03 10:19:02;;;;;;;7.57;2.97;;;;;;;27.96;74.83;97928.72;4485986;32;20118;-70
2023/08/03 10:21:31;;;;;;;5.70;3.05;;;;;;;27.76;74.50;97938.41;4485487;32;20088;-70
2023/08/03 10:24:07;;;;;;;3.53;3.10;;;;;;;27.77;75.45;97933.84;4485544;32;20115;-70
2023/08/03 10:26:37;;;;;;;6.40;2.90;;;;;;;27.70;75.45;97931.41;4485816;32;20145;-70
2023/08/03 10:29:05;;;;;;;4.43;2.80;;;;;;;27.68;76.59;97933.56;4471510;32;20139;-70
2023/08/03 10:31:51;;;;;;;4.20;3.35;;;;;;;27.27;76.33;97938.91;4485430;32;20092;-70
2023/08/03 10:34:29;;;;;;;5.18;2.95;;;;;;;27.54;78.08;97927.94;4485614;32;20156;-70
2023/08/03 10:36:58;;;;;;;5.28;2.80;;;;;;;27.72;77.80;97940.03;4485655;32;20450;-70
2023/08/03 10:39:47;;;;;;;6.85;2.80;;;;;;;28.15;73.57;97945.94;4485531;32;20092;-70
2023/08/03 10:42:32;;;;;;;3.92;3.25;;;;;;;28.11;70.78;97939.47;4485490;32;20475;-70
2023/08/03 10:45:24;;;;;;;4.37;2.95;;;;;;;28.30;72.28;97955.06;4485515;32;20157;-70
2023/08/03 10:47:54;;;;;;;3.15;2.40;;;;;;;28.47;70.06;97957.44;4485687;32;20100;-70
2023/08/03 10:50:58;;;;;;;4.25;2.70;;;;;;;28.61;59.89;97955.81;4499920;31;20157;-70
2023/08/03 10:53:26;;;;;;;3.00;2.28;;;;;;;28.62;59.46;97952.03;4485535;32;20423;-70
2023/08/03 10:56:07;;;;;;;3.60;2.47;;;;;;;28.54;56.30;97954.44;4484712;31;20122;-70
2023/08/03 10:58:47;;;;;;;6.60;2.10;;;;;;;29.01;56.73;97953.22;4485343;31;20137;-70
2023/08/03 11:01:22;;;;;;;5.20;2.33;;;;;;;28.73;55.29;97955.50;4485332;31;20648;-70
2023/08/03 11:03:50;;;;;;;2.83;2.08;;;;;;;28.67;56.60;97954.69;4485063;31;20100;-70
2023/08/03 11:06:18;;;;;;;4.35;1.92;;;;;;;28.59;55.77;97951.75;4485252;31;20088;-70
2023/08/03 11:08:47;;;;;;;3.65;2.22;;;;;;;28.52;55.64;97962.00;4485339;31;20161;-70
2023/08/03 11:11:21;;;;;;;2.10;1.77;;;;;;;28.38;54.54;97969.88;4485136;31;20145;-70
2023/08/03 11:13:50;;;;;;;4.55;2.10;;;;;;;28.37;54.37;97969.03;4485251;31;20099;-70
2023/08/03 11:16:20;;;;;;;2.85;1.73;;;;;;;28.52;53.42;97973.59;4484248;32;20093;-70
2023/08/03 11:18:48;;;;;;;3.42;1.92;;;;;;;28.32;51.58;97972.56;4477560;31;20092;-70
2023/08/03 11:21:17;;;;;;;4.97;2.10;;;;;;;28.01;54.09;97984.44;4484818;31;20100;-70
2023/08/03 11:23:44;;;;;;;3.50;2.00;;;;;;;27.94;56.56;97990.09;4485103;32;20092;-70
2023/08/03 11:26:12;;;;;;;2.70;1.87;;;;;;;28.00;57.09;97999.81;4483853;31;20100;-70
2023/08/03 11:28:41;;;;;;;2.42;1.70;;;;;;;27.99;55.08;98008.94;4483413;31;20120;-70
2023/08/03 11:31:17;;;;;;;2.30;1.80;;;;;;;28.21;49.22;98010.56;4484717;32;20138;-70
2023/08/03 11:33:55;;;;;;;4.00;2.03;;;;;;;28.45;52.39;98014.31;4484949;31;20409;-70
2023/08/03 11:36:23;;;;;;;3.00;1.90;;;;;;;28.29;53.99;98023.47;4484969;31;20165;-70
2023/08/03 11:38:52;;;;;;;3.58;1.87;;;;;;;28.53;53.31;98017.53;4484920;31;20097;-70